Time;durP1;ratioP1;P1;durP2;ratioP2;P2;SDS_P1;SDS_P2;PMS_P1;PMS_P2;Temp;Humidity;BMP_temperature;BMP_pressure;BME280_temperature;BME280_humidity;BME280_pressure;Samples;Min_cycle;Max_cycle;Signal;HPM_P1;HPM_P2
2022/09/24 00:01:12;;;;;;;18.37;7.70;;;17.00;91.00;;;;;;5063081;28;20218;-90
2022/09/24 00:03:50;;;;;;;13.20;6.13;;;17.00;90.60;;;;;;5066252;28;20201;-93
2022/09/24 00:06:18;;;;;;;12.90;6.10;;;17.00;90.90;;;;;;5056581;28;20268;-93
2022/09/24 00:09:10;;;;;;;10.30;5.77;;;17.00;90.80;;;;;;5046471;28;20256;-92
2022/09/24 00:11:41;;;;;;;11.00;5.60;;;17.00;91.40;;;;;;5036818;28;20234;-92
2022/09/24 00:14:29;;;;;;;12.50;6.07;;;17.00;91.10;;;;;;5038546;28;20270;-93
2022/09/24 00:16:56;;;;;;;9.50;5.27;;;17.00;91.70;;;;;;5042058;28;20260;-93
2022/09/24 00:19:30;;;;;;;8.87;4.47;;;17.00;91.00;;;;;;5058570;28;20242;-92
2022/09/24 00:21:57;;;;;;;7.60;4.40;;;17.00;91.90;;;;;;5053086;28;20227;-94
2022/09/24 00:27:32;;;;;;;13.83;5.93;;;17.10;91.60;;;;;;5008834;22;20386;-92
2022/09/24 00:30:03;;;;;;;10.77;5.30;;;17.10;91.20;;;;;;5055139;28;20252;-93
2022/09/24 00:32:32;;;;;;;11.17;5.83;;;17.10;91.40;;;;;;5056664;28;20208;-92
2022/09/24 00:34:59;;;;;;;7.13;4.37;;;17.10;91.50;;;;;;5053883;28;20237;-92
2022/09/24 00:37:37;;;;;;;10.70;5.33;;;17.10;91.20;;;;;;5056427;28;20288;-93
2022/09/24 00:40:05;;;;;;;9.30;5.00;;;17.10;91.40;;;;;;5037266;28;20192;-92
2022/09/24 00:45:15;;;;;;;13.00;5.53;;;17.10;91.40;;;;;;5046926;28;20625;-91
2022/09/24 00:47:44;;;;;;;11.27;5.30;;;17.10;91.40;;;;;;5057927;28;20207;-93
2022/09/24 00:50:22;;;;;;;11.47;5.83;;;17.10;91.50;;;;;;5060092;28;20199;-93
2022/09/24 00:55:49;;;;;;;8.83;5.10;;;17.10;91.80;;;;;;5106894;22;20238;-94
2022/09/24 00:58:32;;;;;;;8.73;5.27;;;17.10;91.50;;;;;;5054966;28;20232;-95
2022/09/24 01:01:41;;;;;;;10.60;5.57;;;17.20;91.70;;;;;;5056743;28;20212;-94
2022/09/24 01:04:12;;;;;;;11.57;6.00;;;17.10;91.50;;;;;;5047369;28;20211;-95
2022/09/24 01:06:42;;;;;;;12.70;6.27;;;17.20;91.30;;;;;;5052944;28;20267;-94
2022/09/24 01:09:11;;;;;;;13.97;6.37;;;17.20;91.50;;;;;;5054171;28;20217;-94
2022/09/24 01:11:47;;;;;;;10.10;5.40;;;17.20;91.20;;;;;;5051249;28;20238;-92
2022/09/24 01:14:34;;;;;;;13.20;6.00;;;17.20;91.20;;;;;;5054317;28;20698;-94
2022/09/24 01:17:10;;;;;;;11.80;5.60;;;17.20;91.40;;;;;;5055009;28;20206;-93
2022/09/24 01:23:36;;;;;;;11.10;5.47;;;17.20;91.50;;;;;;5055274;28;20222;-95
2022/09/24 01:26:18;;;;;;;13.20;6.00;;;17.10;91.30;;;;;;5013629;28;20208;-93
2022/09/24 01:29:04;;;;;;;10.87;5.97;;;17.10;91.30;;;;;;5050595;28;20208;-94
2022/09/24 01:31:49;;;;;;;13.17;5.90;;;17.10;91.20;;;;;;5051491;28;20245;-93
2022/09/24 01:34:25;;;;;;;9.83;5.47;;;17.10;91.20;;;;;;5056853;28;20246;-91
2022/09/24 01:37:17;;;;;;;9.20;5.03;;;17.10;91.70;;;;;;5041622;28;20239;-92
2022/09/24 01:39:46;;;;;;;11.33;5.63;;;17.10;91.40;;;;;;5049908;28;20280;-93
2022/09/24 01:42:17;;;;;;;10.57;5.80;;;17.00;91.10;;;;;;5054585;28;20281;-92
2022/09/24 01:44:45;;;;;;;11.67;5.80;;;17.10;91.20;;;;;;5063041;28;20701;-94
2022/09/24 01:47:31;;;;;;;18.70;8.10;;;17.00;91.10;;;;;;5066816;28;20196;-94
2022/09/24 01:49:58;;;;;;;12.00;6.43;;;17.00;91.70;;;;;;5055729;28;20277;-93
2022/09/24 01:52:31;;;;;;;12.43;6.53;;;17.00;91.10;;;;;;5055507;28;20238;-93
2022/09/24 01:55:02;;;;;;;10.03;5.70;;;17.00;91.50;;;;;;5043643;28;20904;-93
2022/09/24 01:57:34;;;;;;;10.87;5.30;;;17.00;91.60;;;;;;5035263;28;20630;-93
2022/09/24 02:00:11;;;;;;;12.83;6.30;;;17.00;91.70;;;;;;5035741;28;20210;-94
2022/09/24 02:02:45;;;;;;;8.73;5.53;;;16.90;91.90;;;;;;5044733;28;20244;-93
2022/09/24 02:05:19;;;;;;;14.83;6.80;;;16.90;91.80;;;;;;5053544;28;20205;-93
2022/09/24 02:07:52;;;;;;;11.00;5.43;;;17.00;91.90;;;;;;5044917;28;20758;-94
2022/09/24 02:10:21;;;;;;;13.10;6.43;;;17.00;91.90;;;;;;5034179;28;20758;-93
2022/09/24 02:15:52;;;;;;;10.27;7.00;;;17.00;92.00;;;;;;5055778;28;20675;-94
2022/09/24 02:18:31;;;;;;;17.67;7.40;;;17.00;92.10;;;;;;5054693;28;20263;-93
2022/09/24 02:21:02;;;;;;;13.80;6.50;;;17.00;92.30;;;;;;5046496;28;20239;-92
2022/09/24 02:26:50;;;;;;;8.63;5.90;;;17.00;92.20;;;;;;5026339;28;20218;-94
2022/09/24 02:29:23;;;;;;;11.63;6.30;;;17.00;92.30;;;;;;5058451;28;20287;-93
2022/09/24 02:35:28;;;;;;;12.13;6.23;;;17.00;92.20;;;;;;5010542;28;20296;-93
2022/09/24 02:37:55;;;;;;;13.50;7.17;;;17.00;92.30;;;;;;5054228;28;20271;-93
2022/09/24 02:40:23;;;;;;;9.90;6.10;;;17.00;91.90;;;;;;5052741;28;20305;-91
2022/09/24 02:42:51;;;;;;;7.97;5.63;;;17.00;92.20;;;;;;5057565;28;20209;-92
2022/09/24 02:45:18;;;;;;;10.43;6.53;;;17.00;92.00;;;;;;5057118;28;20203;-92
2022/09/24 02:47:46;;;;;;;10.77;6.63;;;17.00;92.00;;;;;;5057215;28;20267;-92
2022/09/24 02:50:13;;;;;;;13.30;7.43;;;17.00;92.20;;;;;;5051393;28;20213;-92
2022/09/24 02:52:41;;;;;;;14.37;7.17;;;17.00;92.10;;;;;;5041250;28;20208;-94
2022/09/24 02:55:08;;;;;;;11.73;6.13;;;17.00;92.30;;;;;;5039663;28;20205;-92
2022/09/24 02:57:35;;;;;;;14.00;7.47;;;17.00;92.30;;;;;;5054637;28;20204;-92
2022/09/24 03:00:12;;;;;;;17.53;7.13;;;17.00;92.30;;;;;;5054260;28;20212;-92
2022/09/24 03:03:33;;;;;;;11.10;6.23;;;17.00;92.70;;;;;;5056640;28;20233;-91
2022/09/24 03:06:01;;;;;;;13.33;6.40;;;17.10;92.90;;;;;;5057022;28;20198;-93
2022/09/24 03:11:51;;;;;;;11.73;6.73;;;17.10;92.90;;;;;;5031202;28;20250;-93
2022/09/24 03:14:37;;;;;;;16.47;7.30;;;17.10;92.40;;;;;;5036861;28;20206;-92
2022/09/24 03:20:15;;;;;;;9.93;5.33;;;17.00;92.80;;;;;;5034029;28;20775;-93
2022/09/24 03:22:43;;;;;;;12.40;6.57;;;17.00;92.30;;;;;;5049163;28;20275;-93
2022/09/24 03:25:12;;;;;;;11.10;5.97;;;17.10;92.80;;;;;;5037492;28;20193;-91
2022/09/24 03:28:00;;;;;;;12.53;6.30;;;17.10;92.90;;;;;;5037224;28;20227;-95
2022/09/24 03:33:17;;;;;;;10.97;6.27;;;17.10;92.90;;;;;;5048484;28;20305;-93
2022/09/24 03:35:45;;;;;;;16.03;6.93;;;17.10;92.50;;;;;;5054380;28;20215;-92
2022/09/24 03:38:12;;;;;;;16.53;7.30;;;17.10;92.70;;;;;;5053629;28;20200;-92
2022/09/24 03:40:39;;;;;;;7.67;4.80;;;17.10;92.40;;;;;;5058431;28;20207;-92
2022/09/24 03:43:07;;;;;;;13.17;6.07;;;17.10;92.90;;;;;;5057811;28;20323;-93
2022/09/24 03:48:53;;;;;;;12.30;6.20;;;17.10;92.70;;;;;;4986517;28;20214;-94
2022/09/24 03:51:22;;;;;;;11.63;6.17;;;17.10;92.60;;;;;;4981623;28;20299;-92
2022/09/24 03:53:49;;;;;;;10.80;5.50;;;17.10;92.90;;;;;;4976399;28;20999;-93
2022/09/24 03:56:18;;;;;;;10.40;4.97;;;17.10;92.70;;;;;;4987637;28;20330;-95
2022/09/24 03:58:52;;;;;;;10.77;5.37;;;17.10;92.90;;;;;;4995901;28;20219;-93
2022/09/24 04:01:21;;;;;;;13.50;5.83;;;17.10;93.10;;;;;;4980523;28;20306;-92
2022/09/24 04:03:48;;;;;;;12.77;6.60;;;17.10;92.90;;;;;;4982877;28;20338;-92
2022/09/24 04:06:19;;;;;;;9.37;5.67;;;17.10;92.80;;;;;;5007195;28;20320;-91
2022/09/24 04:08:46;;;;;;;9.73;5.60;;;17.10;93.00;;;;;;5055436;28;20244;-93
2022/09/24 04:11:13;;;;;;;13.67;6.50;;;17.10;92.70;;;;;;5053085;28;20756;-91
2022/09/24 04:13:42;;;;;;;12.93;6.70;;;17.10;92.80;;;;;;5054077;28;20483;-92
2022/09/24 04:16:41;;;;;;;14.70;6.90;;;17.10;93.10;;;;;;5058280;22;20634;-91
2022/09/24 04:19:12;;;;;;;12.60;6.70;;;17.10;93.40;;;;;;5056313;28;20250;-94
2022/09/24 04:21:45;;;;;;;9.97;6.17;;;17.10;93.10;;;;;;5063939;28;20231;-91
2022/09/24 04:24:15;;;;;;;14.30;7.50;;;17.10;93.30;;;;;;5059859;28;20227;-94
2022/09/24 04:26:42;;;;;;;12.67;7.00;;;17.10;93.50;;;;;;5058687;28;20224;-92
2022/09/24 04:29:09;;;;;;;13.93;7.70;;;17.10;92.90;;;;;;5052323;28;20541;-94
2022/09/24 04:31:37;;;;;;;13.77;7.63;;;17.10;92.90;;;;;;5054145;28;20228;-94
2022/09/24 04:34:06;;;;;;;14.07;7.80;;;17.10;92.90;;;;;;5055300;28;20556;-92
2022/09/24 04:36:35;;;;;;;15.63;7.70;;;17.00;93.30;;;;;;5055608;28;20262;-90
2022/09/24 04:39:26;;;;;;;;;;;;;;;;;;;;;
2022/09/24 04:41:55;;;;;;;15.60;8.77;;;17.10;93.20;;;;;;5052266;28;20201;-92
2022/09/24 04:44:26;;;;;;;12.30;7.27;;;17.00;93.30;;;;;;5053763;28;20287;-92
2022/09/24 04:46:58;;;;;;;17.50;8.63;;;17.10;93.40;;;;;;5055677;28;20208;-94
2022/09/24 04:49:28;;;;;;;12.47;8.17;;;17.10;93.20;;;;;;5054852;28;20202;-94
2022/09/24 04:52:03;;;;;;;15.23;8.27;;;17.10;93.40;;;;;;5053237;28;20219;-93
2022/09/24 04:54:30;;;;;;;10.60;7.10;;;17.00;93.50;;;;;;5053506;28;20256;-92
2022/09/24 04:57:01;;;;;;;15.77;8.87;;;17.00;93.20;;;;;;5062302;28;20196;-92
2022/09/24 04:59:37;;;;;;;11.20;7.93;;;17.10;93.50;;;;;;5059258;28;20204;-92
2022/09/24 05:02:05;;;;;;;11.60;7.90;;;17.10;93.40;;;;;;5057040;28;20208;-93
2022/09/24 05:04:34;;;;;;;13.53;8.73;;;17.00;93.30;;;;;;5053688;28;20235;-91
2022/09/24 05:07:07;;;;;;;14.87;8.63;;;17.00;93.60;;;;;;5055107;28;20220;-92
2022/09/24 05:10:00;;;;;;;11.50;8.07;;;17.10;93.70;;;;;;5059072;28;20203;-93
2022/09/24 05:12:27;;;;;;;18.87;9.50;;;17.10;93.90;;;;;;5037134;28;20677;-92
2022/09/24 05:14:56;;;;;;;15.63;9.17;;;17.10;93.40;;;;;;5035812;28;20663;-91
2022/09/24 05:17:23;;;;;;;16.57;9.17;;;17.10;93.60;;;;;;5054989;28;20218;-91
2022/09/24 05:19:52;;;;;;;13.00;7.97;;;17.10;93.50;;;;;;5058383;28;20209;-92
2022/09/24 05:22:24;;;;;;;18.50;10.17;;;17.10;93.80;;;;;;5061051;28;20199;-92
2022/09/24 05:24:52;;;;;;;15.90;9.80;;;17.10;93.80;;;;;;5061209;28;20234;-92
2022/09/24 05:27:20;;;;;;;12.57;8.23;;;17.10;93.80;;;;;;5053193;28;20212;-91
2022/09/24 05:29:47;;;;;;;19.67;9.77;;;17.10;94.10;;;;;;5053480;28;20229;-92
2022/09/24 05:32:18;;;;;;;16.00;9.67;;;17.10;93.60;;;;;;5032532;28;20261;-90
2022/09/24 05:34:46;;;;;;;16.80;10.13;;;17.10;93.60;;;;;;5032833;28;20205;-90
2022/09/24 05:37:14;;;;;;;14.70;8.73;;;17.10;93.80;;;;;;5051256;28;20204;-90
2022/09/24 05:39:56;;;;;;;16.80;9.20;;;17.10;93.70;;;;;;5050891;28;20282;-90
2022/09/24 05:42:26;;;;;;;11.63;7.80;;;17.10;94.00;;;;;;5047527;28;20251;-90
2022/09/24 05:47:35;;;;;;;12.60;7.87;;;17.20;93.80;;;;;;5051397;28;21007;-91
2022/09/24 05:53:16;;;;;;;12.50;7.30;;;17.20;94.20;;;;;;5024924;28;20294;-92
2022/09/24 05:55:44;;;;;;;13.63;8.03;;;17.20;94.00;;;;;;5050386;28;20232;-91
2022/09/24 05:58:14;;;;;;;11.77;7.50;;;17.20;94.00;;;;;;5052157;28;20287;-93
2022/09/24 06:00:41;;;;;;;16.03;8.80;;;17.20;94.00;;;;;;5047882;28;20208;-91
2022/09/24 06:03:12;;;;;;;14.33;8.27;;;17.20;93.80;;;;;;5056038;28;20320;-91
2022/09/24 06:05:44;;;;;;;9.43;6.90;;;17.30;94.10;;;;;;5033421;28;20232;-91
2022/09/24 06:08:22;;;;;;;11.87;7.27;;;17.20;94.10;;;;;;5033056;28;20185;-92
2022/09/24 06:10:53;;;;;;;15.37;8.17;;;17.20;94.00;;;;;;5051382;28;20250;-90
2022/09/24 06:13:24;;;;;;;12.37;7.07;;;17.30;94.00;;;;;;5048741;28;20208;-92
2022/09/24 06:15:51;;;;;;;14.37;7.90;;;17.30;94.00;;;;;;5034485;28;20218;-91
2022/09/24 06:18:21;;;;;;;16.37;8.40;;;17.30;93.80;;;;;;5039615;28;20241;-91
2022/09/24 06:20:48;;;;;;;9.40;6.73;;;17.40;94.10;;;;;;5057212;28;20208;-91
2022/09/24 06:23:32;;;;;;;12.20;7.70;;;17.40;93.80;;;;;;5058068;28;20226;-93
2022/09/24 06:28:48;;;;;;;12.20;8.03;;;17.40;94.10;;;;;;5037376;28;20204;-94
2022/09/24 06:31:15;;;;;;;13.23;8.63;;;17.50;94.20;;;;;;5058718;28;20203;-91
2022/09/24 06:33:43;;;;;;;14.17;8.93;;;17.50;93.90;;;;;;5040936;28;20211;-90
2022/09/24 06:36:17;;;;;;;12.87;8.53;;;17.50;93.90;;;;;;5036168;28;20211;-93
2022/09/24 06:39:02;;;;;;;13.37;9.20;;;17.50;94.00;;;;;;5039493;28;20289;-92
2022/09/24 06:41:31;;;;;;;12.73;8.83;;;17.50;94.30;;;;;;5039484;28;20212;-91
2022/09/24 06:44:02;;;;;;;15.13;9.00;;;17.50;94.10;;;;;;5036051;28;20908;-92
2022/09/24 06:46:29;;;;;;;16.63;9.40;;;17.50;94.30;;;;;;5036166;28;20211;-91
2022/09/24 06:48:56;;;;;;;15.53;9.47;;;17.60;94.20;;;;;;5035169;28;20201;-92
2022/09/24 06:54:15;;;;;;;14.17;8.77;;;17.60;94.00;;;;;;5033098;28;20211;-95
2022/09/24 06:56:45;;;;;;;12.13;8.40;;;17.60;94.20;;;;;;5040496;28;20644;-93
2022/09/24 06:59:32;;;;;;;14.30;8.70;;;17.60;94.20;;;;;;5037523;28;20211;-93
2022/09/24 07:02:17;;;;;;;10.30;7.90;;;17.60;94.30;;;;;;5037318;28;20722;-93
2022/09/24 07:04:44;;;;;;;12.27;7.87;;;17.60;94.20;;;;;;5041618;28;20219;-92
2022/09/24 07:10:04;;;;;;;11.67;8.00;;;17.70;94.20;;;;;;5040713;28;20226;-92
2022/09/24 07:12:37;;;;;;;10.30;7.50;;;17.70;94.20;;;;;;5042744;28;20209;-94
2022/09/24 07:15:25;;;;;;;9.93;7.03;;;17.70;94.20;;;;;;5042237;28;20261;-94
2022/09/24 07:18:21;;;;;;;19.30;9.20;;;17.80;94.60;;;;;;5030478;28;20208;-93
2022/09/24 07:20:54;;;;;;;10.10;6.63;;;17.70;94.60;;;;;;5038579;28;20208;-92
2022/09/24 07:23:22;;;;;;;16.73;8.97;;;17.80;94.50;;;;;;5030398;28;20229;-91
2022/09/24 07:26:07;;;;;;;11.47;7.83;;;17.80;94.30;;;;;;5032438;28;20283;-93
2022/09/24 07:28:36;;;;;;;15.13;7.73;;;17.90;94.40;;;;;;5031563;28;20206;-95
2022/09/24 07:31:07;;;;;;;10.03;6.43;;;17.90;94.60;;;;;;5035302;28;20938;-91
2022/09/24 07:33:37;;;;;;;11.03;6.83;;;17.90;94.40;;;;;;5022241;28;20229;-93
2022/09/24 07:36:08;;;;;;;14.63;8.30;;;17.90;94.80;;;;;;5029502;28;20214;-96
2022/09/24 07:42:00;;;;;;;11.70;6.67;;;18.00;95.40;;;;;;5015718;28;20591;-96
2022/09/24 07:45:01;;;;;;;15.00;6.60;;;18.00;95.00;;;;;;5036705;28;20253;-94
2022/09/24 07:47:30;;;;;;;16.67;7.53;;;18.00;95.40;;;;;;5032199;28;20606;-95
2022/09/24 07:53:31;;;;;;;12.07;6.30;;;18.10;95.50;;;;;;5034376;28;20225;-95
2022/09/24 07:55:59;;;;;;;13.73;7.47;;;18.10;95.50;;;;;;5035044;28;20202;-94
2022/09/24 07:58:29;;;;;;;10.27;6.23;;;18.10;95.20;;;;;;5035340;28;20217;-94
2022/09/24 08:01:00;;;;;;;11.13;6.33;;;18.20;95.20;;;;;;5032239;28;20208;-93
2022/09/24 08:03:27;;;;;;;12.93;6.77;;;18.20;95.60;;;;;;5035395;28;20289;-92
2022/09/24 08:05:57;;;;;;;10.10;6.23;;;18.20;95.30;;;;;;5041299;28;20226;-93
2022/09/24 08:09:14;;;;;;;14.63;7.43;;;18.30;95.30;;;;;;5038028;28;20203;-95
2022/09/24 08:12:37;;;;;;;12.70;6.50;;;18.30;95.80;;;;;;5038778;28;20211;-95
2022/09/24 08:15:06;;;;;;;14.67;6.87;;;18.30;95.60;;;;;;5035211;28;20236;-95
2022/09/24 08:17:35;;;;;;;6.43;4.60;;;18.40;95.40;;;;;;5040176;28;20469;-92
2022/09/24 08:20:03;;;;;;;15.70;6.20;;;18.40;95.40;;;;;;5038115;28;20223;-94
2022/09/24 08:28:25;;;;;;;8.27;4.23;;;18.50;95.30;;;;;;5035113;28;20205;-94
2022/09/24 08:30:59;;;;;;;10.40;4.53;;;18.60;95.00;;;;;;5038503;28;20269;-93
2022/09/24 08:36:37;;;;;;;9.57;4.60;;;18.60;95.20;;;;;;5047369;28;20205;-94
2022/09/24 08:39:07;;;;;;;9.63;4.83;;;18.60;94.90;;;;;;5036374;28;20213;-93
2022/09/24 08:41:56;;;;;;;9.60;5.03;;;18.70;95.20;;;;;;5035013;28;20197;-93
2022/09/24 08:47:50;;;;;;;12.47;5.03;;;18.80;95.30;;;;;;5034867;28;20195;-92
2022/09/24 08:51:05;;;;;;;9.33;5.17;;;18.90;95.30;;;;;;5013526;28;20200;-92
2022/09/24 08:54:02;;;;;;;7.27;4.17;;;19.00;95.40;;;;;;5037247;28;20200;-93
2022/09/24 08:56:32;;;;;;;11.30;4.23;;;19.00;95.30;;;;;;5024859;28;20213;-92
2022/09/24 08:59:05;;;;;;;9.17;4.20;;;19.00;94.90;;;;;;5035752;28;20250;-93
2022/09/24 09:01:39;;;;;;;12.47;4.53;;;19.10;94.90;;;;;;5036444;28;20205;-92
2022/09/24 09:04:26;;;;;;;7.17;3.80;;;19.10;94.70;;;;;;5023246;28;20756;-92
2022/09/24 09:07:10;;;;;;;8.90;4.20;;;19.10;94.90;;;;;;5024645;28;20688;-91
2022/09/24 09:10:01;;;;;;;9.17;4.50;;;19.20;94.90;;;;;;5024763;28;20205;-93
2022/09/24 09:16:05;;;;;;;15.50;4.93;;;19.30;94.80;;;;;;5006915;28;20244;-92
2022/09/24 09:18:40;;;;;;;9.13;3.03;;;19.30;94.10;;;;;;5037784;28;20200;-91
2022/09/24 09:21:27;;;;;;;10.03;3.47;;;19.40;93.70;;;;;;5029545;28;20204;-93
2022/09/24 09:24:24;;;;;;;12.47;4.20;;;19.40;93.70;;;;;;5035458;28;20697;-93
2022/09/24 09:26:56;;;;;;;10.20;3.03;;;19.50;93.40;;;;;;5036195;28;20204;-92
2022/09/24 09:29:58;;;;;;;10.50;4.07;;;19.50;93.60;;;;;;5019741;28;20287;-92
2022/09/24 09:32:39;;;;;;;7.20;2.77;;;19.60;93.60;;;;;;5034663;28;20207;-93
2022/09/24 09:35:31;;;;;;;11.83;3.43;;;19.70;93.40;;;;;;5036057;28;20210;-94
2022/09/24 09:38:11;;;;;;;11.10;3.37;;;19.70;92.80;;;;;;5033410;28;20205;-92
2022/09/24 09:43:44;;;;;;;8.17;2.77;;;19.80;92.00;;;;;;5036444;28;20665;-92
2022/09/24 09:46:20;;;;;;;11.23;3.70;;;19.80;92.30;;;;;;5032907;28;20204;-92
2022/09/24 09:48:54;;;;;;;14.17;3.93;;;19.80;91.90;;;;;;5001153;28;20594;-90
2022/09/24 09:51:26;;;;;;;14.33;4.50;;;19.90;91.30;;;;;;5028932;28;20238;-91
2022/09/24 09:54:02;;;;;;;10.87;3.67;;;19.90;90.70;;;;;;5034530;28;20978;-94
2022/09/24 09:56:33;;;;;;;15.73;4.50;;;19.90;90.30;;;;;;5024389;28;20204;-90
2022/09/24 09:59:18;;;;;;;14.37;3.73;;;20.00;90.50;;;;;;5033758;28;20192;-92
2022/09/24 10:01:47;;;;;;;15.47;3.30;;;20.00;90.00;;;;;;5031272;28;20206;-90
2022/09/24 10:04:42;;;;;;;9.50;2.87;;;19.90;89.30;;;;;;5034910;28;20216;-91
2022/09/24 10:07:10;;;;;;;10.67;3.30;;;19.90;89.70;;;;;;5041426;28;20723;-92
2022/09/24 10:09:39;;;;;;;16.87;4.73;;;20.00;90.20;;;;;;5033517;28;20204;-92
2022/09/24 10:12:20;;;;;;;13.60;4.47;;;19.90;89.90;;;;;;5017828;28;20216;-92
2022/09/24 10:14:59;;;;;;;13.07;3.70;;;19.90;89.90;;;;;;5015268;28;20701;-93
2022/09/24 10:17:31;;;;;;;10.90;2.57;;;20.00;87.80;;;;;;5030111;28;20715;-94
2022/09/24 10:20:02;;;;;;;14.63;3.63;;;20.00;87.90;;;;;;5016171;28;20204;-93
2022/09/24 10:22:32;;;;;;;18.53;5.37;;;20.00;88.10;;;;;;5032361;28;20199;-92
2022/09/24 10:25:01;;;;;;;10.80;3.57;;;20.00;87.60;;;;;;5032233;28;20251;-90
2022/09/24 10:27:33;;;;;;;12.87;3.47;;;20.00;88.90;;;;;;5036219;28;20295;-93
2022/09/24 10:32:58;;;;;;;12.27;3.60;;;20.10;88.00;;;;;;5029662;28;20195;-91
2022/09/24 10:35:29;;;;;;;9.60;3.10;;;20.10;86.20;;;;;;5028056;28;20201;-91
2022/09/24 10:38:01;;;;;;;7.50;2.23;;;20.20;85.10;;;;;;5038420;28;20197;-93
2022/09/24 10:40:33;;;;;;;4.40;1.87;;;20.30;86.20;;;;;;5040126;28;20221;-94
2022/09/24 10:43:03;;;;;;;14.17;3.13;;;20.30;85.60;;;;;;5014663;28;20197;-91
2022/09/24 10:46:02;;;;;;;11.43;3.03;;;20.30;84.30;;;;;;5037984;28;20224;-92
2022/09/24 10:49:10;;;;;;;10.17;3.00;;;20.40;82.90;;;;;;5040464;28;20207;-95
2022/09/24 10:55:02;;;;;;;9.87;2.57;;;20.50;85.70;;;;;;5009030;28;20221;-93
2022/09/24 10:57:51;;;;;;;10.80;2.60;;;20.60;84.90;;;;;;5045010;28;20208;-94
2022/09/24 11:00:25;;;;;;;11.97;3.23;;;20.70;84.10;;;;;;5044482;28;20254;-94
2022/09/24 11:03:27;;;;;;;12.20;3.67;;;20.70;84.00;;;;;;5045273;28;20204;-92
2022/09/24 11:06:08;;;;;;;12.87;3.80;;;20.80;83.20;;;;;;5039500;28;20228;-92
2022/09/24 11:08:57;;;;;;;5.30;1.87;;;20.90;81.70;;;;;;5038611;28;20211;-94
2022/09/24 11:11:33;;;;;;;9.73;3.23;;;21.00;81.90;;;;;;5035665;28;20208;-91
2022/09/24 11:14:18;;;;;;;11.63;3.17;;;21.10;82.00;;;;;;5047561;28;20188;-91
2022/09/24 11:17:17;;;;;;;4.77;2.27;;;21.20;80.20;;;;;;5036077;28;20220;-93
2022/09/24 11:20:14;;;;;;;3.83;1.43;;;21.30;80.30;;;;;;5031334;28;20189;-92
2022/09/24 11:23:23;;;;;;;7.37;1.83;;;21.40;79.90;;;;;;5047503;28;20199;-93
2022/09/24 11:26:10;;;;;;;9.87;2.80;;;21.50;77.00;;;;;;5014200;28;20232;-92
2022/09/24 11:32:10;;;;;;;9.80;2.40;;;21.70;77.20;;;;;;5026796;28;20208;-93
2022/09/24 11:35:05;;;;;;;7.40;2.80;;;21.80;76.20;;;;;;5025513;28;20215;-93
2022/09/24 11:38:24;;;;;;;7.17;2.20;;;21.80;75.80;;;;;;5044225;28;20214;-90
2022/09/24 11:41:15;;;;;;;8.07;1.83;;;22.00;75.40;;;;;;5046316;28;20209;-90
2022/09/24 11:44:21;;;;;;;8.23;3.00;;;22.00;73.90;;;;;;5041942;28;20211;-94
2022/09/24 11:47:25;;;;;;;7.43;2.40;;;22.00;71.60;;;;;;4994700;28;20208;-94
2022/09/24 11:50:26;;;;;;;9.23;2.17;;;22.10;71.70;;;;;;5037121;28;20231;-93
2022/09/24 11:53:03;;;;;;;4.57;2.00;;;22.10;72.00;;;;;;5060240;22;20242;-90
2022/09/24 11:55:37;;;;;;;5.87;1.83;;;22.10;71.80;;;;;;5057462;28;20187;-95
2022/09/24 11:58:27;;;;;;;9.07;3.07;;;22.20;71.90;;;;;;5063210;28;20243;-96
2022/09/24 12:00:58;;;;;;;4.97;1.83;;;22.20;71.60;;;;;;5062417;28;20208;-92
2022/09/24 12:03:42;;;;;;;6.57;2.13;;;22.20;72.40;;;;;;5058794;28;20208;-92
2022/09/24 12:06:15;;;;;;;10.47;3.50;;;22.30;71.10;;;;;;5062267;28;20235;-92
2022/09/24 12:08:51;;;;;;;12.67;2.90;;;22.30;71.30;;;;;;5070318;28;20192;-90
2022/09/24 12:11:35;;;;;;;9.50;2.80;;;22.30;70.30;;;;;;5068678;28;20222;-93
2022/09/24 12:14:13;;;;;;;8.97;2.40;;;22.40;69.40;;;;;;5064622;28;20189;-89
2022/09/24 12:16:46;;;;;;;9.97;2.40;;;22.50;69.80;;;;;;5046789;28;20215;-91
2022/09/24 12:19:21;;;;;;;7.17;2.40;;;22.60;70.10;;;;;;5062249;28;20393;-93
2022/09/24 12:21:52;;;;;;;9.10;2.10;;;22.70;69.80;;;;;;5042460;28;20193;-91
2022/09/24 12:24:37;;;;;;;6.63;1.77;;;22.70;69.70;;;;;;5059195;28;20214;-94
2022/09/24 12:27:14;;;;;;;12.47;2.67;;;22.80;67.90;;;;;;5054334;28;20200;-95
2022/09/24 12:32:58;;;;;;;9.77;3.10;;;22.90;66.60;;;;;;5059100;28;20210;-88
2022/09/24 12:35:43;;;;;;;8.07;2.50;;;23.00;66.70;;;;;;5062050;28;20210;-91
2022/09/24 12:38:17;;;;;;;8.50;2.57;;;23.10;66.20;;;;;;5050375;28;20208;-93
2022/09/24 12:41:11;;;;;;;6.43;1.77;;;23.10;67.40;;;;;;5063614;28;20242;-93
2022/09/24 12:43:44;;;;;;;6.67;1.97;;;23.30;66.40;;;;;;5059387;28;20194;-92
2022/09/24 12:46:20;;;;;;;5.57;2.20;;;23.30;66.50;;;;;;5056494;28;20231;-90
2022/09/24 12:48:49;;;;;;;6.50;1.87;;;23.40;65.50;;;;;;5048541;28;20251;-93
2022/09/24 12:51:22;;;;;;;7.10;2.30;;;23.50;66.20;;;;;;5034782;28;20215;-91
2022/09/24 12:53:59;;;;;;;7.10;2.57;;;23.50;65.70;;;;;;5050339;28;20272;-91
2022/09/24 12:56:29;;;;;;;9.10;2.83;;;23.60;65.00;;;;;;5057018;28;20200;-96
2022/09/24 12:58:58;;;;;;;10.60;2.57;;;23.70;65.40;;;;;;5055679;28;20207;-95
2022/09/24 13:01:41;;;;;;;8.17;1.83;;;23.80;65.70;;;;;;5040488;28;20282;-92
2022/09/24 13:04:28;;;;;;;10.50;2.43;;;23.80;65.00;;;;;;5042369;28;20208;-91
2022/09/24 13:06:55;;;;;;;8.63;3.07;;;23.90;63.50;;;;;;5060089;28;20277;-92
2022/09/24 13:09:35;;;;;;;8.27;2.67;;;24.00;64.30;;;;;;5038858;28;20208;-91
2022/09/24 13:12:21;;;;;;;12.00;4.03;;;24.00;61.60;;;;;;5042560;28;20200;-89
2022/09/24 13:14:57;;;;;;;13.17;3.93;;;24.10;60.20;;;;;;5049323;28;20204;-94
2022/09/24 13:17:26;;;;;;;9.73;3.57;;;24.10;61.80;;;;;;5054667;28;20245;-94
2022/09/24 13:20:00;;;;;;;8.33;2.73;;;24.10;61.50;;;;;;5055066;28;20208;-90
2022/09/24 13:22:30;;;;;;;7.37;2.60;;;24.20;60.90;;;;;;5057456;28;20217;-90
2022/09/24 13:25:26;;;;;;;8.90;2.80;;;24.20;60.90;;;;;;5055912;28;20207;-90
2022/09/24 13:27:59;;;;;;;8.43;2.67;;;24.20;59.00;;;;;;5029317;28;20200;-91
2022/09/24 13:30:42;;;;;;;11.00;3.07;;;24.20;60.20;;;;;;5046391;28;20209;-90
2022/09/24 13:33:22;;;;;;;8.70;3.03;;;24.20;59.20;;;;;;5047941;28;20208;-92
2022/09/24 13:36:06;;;;;;;8.37;2.33;;;24.20;59.00;;;;;;5055103;28;20683;-91
2022/09/24 13:38:37;;;;;;;9.90;3.20;;;24.30;58.40;;;;;;5055006;28;20621;-91
2022/09/24 13:41:20;;;;;;;11.77;3.00;;;24.30;60.00;;;;;;5058090;28;20231;-91
2022/09/24 13:43:53;;;;;;;8.70;2.63;;;24.30;59.10;;;;;;5054797;28;20204;-91
2022/09/24 13:46:24;;;;;;;8.13;2.80;;;24.40;59.80;;;;;;5054899;28;20220;-91
2022/09/24 13:48:55;;;;;;;6.90;2.47;;;24.40;60.10;;;;;;5054527;28;20212;-92
2022/09/24 13:51:45;;;;;;;8.07;2.40;;;24.40;60.30;;;;;;5034229;28;20685;-92
2022/09/24 13:54:22;;;;;;;18.37;4.33;;;24.40;59.20;;;;;;5044027;28;20219;-94
2022/09/24 13:57:09;;;;;;;9.80;2.97;;;24.50;59.40;;;;;;5035525;28;20205;-91
2022/09/24 13:59:36;;;;;;;8.83;2.53;;;24.50;59.20;;;;;;5047062;28;20204;-90
2022/09/24 14:02:22;;;;;;;14.03;4.70;;;24.50;60.00;;;;;;5053178;28;20196;-89
2022/09/24 14:04:58;;;;;;;8.23;2.50;;;24.50;59.30;;;;;;5041469;28;20649;-89
2022/09/24 14:07:27;;;;;;;7.47;2.53;;;24.50;58.30;;;;;;5053262;28;20557;-89
2022/09/24 14:10:13;;;;;;;7.63;2.83;;;24.50;58.60;;;;;;5053205;28;20189;-90
2022/09/24 14:12:40;;;;;;;6.47;2.27;;;24.40;58.00;;;;;;5052759;28;20207;-91
2022/09/24 14:15:15;;;;;;;9.50;3.40;;;24.40;58.70;;;;;;5053395;28;20285;-91
2022/09/24 14:17:56;;;;;;;10.53;2.93;;;24.30;58.00;;;;;;5052438;28;20226;-91
2022/09/24 14:20:28;;;;;;;10.53;3.47;;;24.10;57.70;;;;;;5036182;28;20200;-93
2022/09/24 14:22:55;;;;;;;8.80;2.73;;;24.10;58.20;;;;;;5051628;28;20785;-90
2022/09/24 14:25:28;;;;;;;8.10;3.10;;;24.00;58.00;;;;;;5051615;28;20248;-91
2022/09/24 14:28:02;;;;;;;13.97;4.17;;;23.90;57.90;;;;;;5051058;28;20607;-90
2022/09/24 14:30:33;;;;;;;10.73;3.70;;;23.70;57.10;;;;;;5052591;28;20733;-92
2022/09/24 14:33:06;;;;;;;7.07;2.67;;;23.60;57.80;;;;;;5051810;28;20198;-91
2022/09/24 14:35:37;;;;;;;9.90;2.70;;;23.50;57.50;;;;;;5053791;28;20562;-91
2022/09/24 14:38:12;;;;;;;8.53;3.10;;;23.30;57.90;;;;;;5055898;28;20633;-92
2022/09/24 14:40:41;;;;;;;11.10;3.57;;;23.20;58.20;;;;;;5056101;28;20209;-91
2022/09/24 14:43:17;;;;;;;8.93;2.67;;;23.20;58.40;;;;;;5044579;28;20236;-91
2022/09/24 14:45:45;;;;;;;4.83;1.63;;;23.10;58.10;;;;;;5045919;28;20244;-89
2022/09/24 14:48:29;;;;;;;7.90;2.70;;;23.00;58.70;;;;;;5054355;28;20362;-90
2022/09/24 14:51:48;;;;;;;11.83;3.53;;;22.90;57.20;;;;;;5055587;28;20207;-91
2022/09/24 14:54:22;;;;;;;8.53;3.17;;;22.80;56.90;;;;;;5020173;28;20219;-93